sensor_id;sensor_type;location;lat;lon;timestamp;P1;durP1;ratioP1;P2;durP2;ratioP2
9968;SDS011;5025;48.890;9.278;2024-03-25T00:00:33;3.10;;;2.23;;
9968;SDS011;5025;48.890;9.278;2024-03-25T00:02:59;2.23;;;1.90;;
9968;SDS011;5025;48.890;9.278;2024-03-25T00:05:24;2.97;;;2.00;;
9968;SDS011;5025;48.890;9.278;2024-03-25T00:07:50;2.57;;;2.37;;
9968;SDS011;5025;48.890;9.278;2024-03-25T00:10:16;2.40;;;2.20;;
9968;SDS011;5025;48.890;9.278;2024-03-25T00:12:42;2.63;;;2.23;;
9968;SDS011;5025;48.890;9.278;2024-03-25T00:15:07;2.10;;;1.90;;
9968;SDS011;5025;48.890;9.278;2024-03-25T00:17:33;2.80;;;2.10;;
9968;SDS011;5025;48.890;9.278;2024-03-25T00:19:59;2.57;;;2.17;;
9968;SDS011;5025;48.890;9.278;2024-03-25T00:22:24;2.57;;;2.10;;
9968;SDS011;5025;48.890;9.278;2024-03-25T00:24:50;2.37;;;2.10;;
9968;SDS011;5025;48.890;9.278;2024-03-25T00:27:16;2.20;;;2.00;;
9968;SDS011;5025;48.890;9.278;2024-03-25T00:29:42;2.00;;;1.90;;
9968;SDS011;5025;48.890;9.278;2024-03-25T00:32:08;3.00;;;2.20;;
9968;SDS011;5025;48.890;9.278;2024-03-25T00:34:34;3.90;;;2.20;;
9968;SDS011;5025;48.890;9.278;2024-03-25T00:36:59;2.97;;;2.37;;
9968;SDS011;5025;48.890;9.278;2024-03-25T00:39:25;3.80;;;2.30;;
9968;SDS011;5025;48.890;9.278;2024-03-25T00:41:51;2.80;;;2.33;;
9968;SDS011;5025;48.890;9.278;2024-03-25T00:44:16;2.53;;;2.10;;
9968;SDS011;5025;48.890;9.278;2024-03-25T00:46:42;3.80;;;2.50;;
9968;SDS011;5025;48.890;9.278;2024-03-25T00:49:08;4.00;;;2.40;;
9968;SDS011;5025;48.890;9.278;2024-03-25T00:51:33;4.93;;;2.83;;
9968;SDS011;5025;48.890;9.278;2024-03-25T00:53:59;2.60;;;2.27;;
9968;SDS011;5025;48.890;9.278;2024-03-25T00:56:24;3.40;;;2.60;;
9968;SDS011;5025;48.890;9.278;2024-03-25T00:58:49;2.80;;;2.40;;
9968;SDS011;5025;48.890;9.278;2024-03-25T01:01:15;3.63;;;2.50;;
9968;SDS011;5025;48.890;9.278;2024-03-25T01:03:40;2.50;;;2.30;;
9968;SDS011;5025;48.890;9.278;2024-03-25T01:06:05;2.23;;;2.13;;
9968;SDS011;5025;48.890;9.278;2024-03-25T01:08:31;2.10;;;1.97;;
9968;SDS011;5025;48.890;9.278;2024-03-25T01:10:56;2.30;;;2.10;;
9968;SDS011;5025;48.890;9.278;2024-03-25T01:13:21;2.87;;;2.30;;
9968;SDS011;5025;48.890;9.278;2024-03-25T01:15:46;2.47;;;2.03;;
9968;SDS011;5025;48.890;9.278;2024-03-25T01:18:12;3.40;;;2.20;;
9968;SDS011;5025;48.890;9.278;2024-03-25T01:20:37;2.37;;;1.97;;
9968;SDS011;5025;48.890;9.278;2024-03-25T01:23:03;2.63;;;2.30;;
9968;SDS011;5025;48.890;9.278;2024-03-25T01:25:29;2.00;;;1.90;;
9968;SDS011;5025;48.890;9.278;2024-03-25T01:27:55;2.70;;;2.00;;
9968;SDS011;5025;48.890;9.278;2024-03-25T01:30:20;2.40;;;2.00;;
9968;SDS011;5025;48.890;9.278;2024-03-25T01:32:46;2.40;;;2.10;;
9968;SDS011;5025;48.890;9.278;2024-03-25T01:35:14;3.07;;;2.20;;
9968;SDS011;5025;48.890;9.278;2024-03-25T01:37:40;3.73;;;2.10;;
9968;SDS011;5025;48.890;9.278;2024-03-25T01:40:06;2.20;;;2.00;;
9968;SDS011;5025;48.890;9.278;2024-03-25T01:42:32;2.70;;;2.17;;
9968;SDS011;5025;48.890;9.278;2024-03-25T01:44:58;2.33;;;2.13;;
9968;SDS011;5025;48.890;9.278;2024-03-25T01:47:23;2.67;;;2.23;;
9968;SDS011;5025;48.890;9.278;2024-03-25T01:49:49;2.40;;;2.20;;
9968;SDS011;5025;48.890;9.278;2024-03-25T01:52:18;2.90;;;2.27;;
9968;SDS011;5025;48.890;9.278;2024-03-25T01:54:45;2.73;;;2.03;;
9968;SDS011;5025;48.890;9.278;2024-03-25T01:57:10;3.60;;;2.30;;
9968;SDS011;5025;48.890;9.278;2024-03-25T01:59:35;2.30;;;2.10;;
9968;SDS011;5025;48.890;9.278;2024-03-25T02:02:01;2.57;;;2.37;;
9968;SDS011;5025;48.890;9.278;2024-03-25T02:04:26;2.60;;;2.40;;
9968;SDS011;5025;48.890;9.278;2024-03-25T02:06:52;3.37;;;2.30;;
9968;SDS011;5025;48.890;9.278;2024-03-25T02:09:20;2.87;;;2.30;;
9968;SDS011;5025;48.890;9.278;2024-03-25T02:11:47;2.70;;;2.50;;
9968;SDS011;5025;48.890;9.278;2024-03-25T02:14:13;3.17;;;2.13;;
9968;SDS011;5025;48.890;9.278;2024-03-25T02:16:38;3.70;;;2.20;;
9968;SDS011;5025;48.890;9.278;2024-03-25T02:19:03;2.30;;;1.90;;
9968;SDS011;5025;48.890;9.278;2024-03-25T02:21:29;2.80;;;2.10;;
9968;SDS011;5025;48.890;9.278;2024-03-25T02:23:55;4.27;;;2.40;;
9968;SDS011;5025;48.890;9.278;2024-03-25T02:26:23;3.87;;;2.33;;
9968;SDS011;5025;48.890;9.278;2024-03-25T02:28:48;3.33;;;1.93;;
9968;SDS011;5025;48.890;9.278;2024-03-25T02:31:14;3.87;;;2.40;;
9968;SDS011;5025;48.890;9.278;2024-03-25T02:33:39;3.30;;;2.53;;
9968;SDS011;5025;48.890;9.278;2024-03-25T02:36:04;2.83;;;2.23;;
9968;SDS011;5025;48.890;9.278;2024-03-25T02:38:30;4.33;;;2.20;;
9968;SDS011;5025;48.890;9.278;2024-03-25T02:40:57;3.27;;;2.40;;
9968;SDS011;5025;48.890;9.278;2024-03-25T02:43:22;2.20;;;2.10;;
9968;SDS011;5025;48.890;9.278;2024-03-25T02:45:48;3.77;;;2.30;;
9968;SDS011;5025;48.890;9.278;2024-03-25T02:48:13;3.53;;;2.60;;
9968;SDS011;5025;48.890;9.278;2024-03-25T02:50:39;2.97;;;2.30;;
9968;SDS011;5025;48.890;9.278;2024-03-25T02:53:04;4.93;;;2.47;;
9968;SDS011;5025;48.890;9.278;2024-03-25T02:55:29;2.67;;;2.40;;
9968;SDS011;5025;48.890;9.278;2024-03-25T02:57:54;3.30;;;2.53;;
9968;SDS011;5025;48.890;9.278;2024-03-25T03:00:20;3.27;;;2.67;;
9968;SDS011;5025;48.890;9.278;2024-03-25T03:02:45;3.20;;;2.30;;
9968;SDS011;5025;48.890;9.278;2024-03-25T03:05:10;2.87;;;2.60;;
9968;SDS011;5025;48.890;9.278;2024-03-25T03:07:35;2.87;;;2.43;;
9968;SDS011;5025;48.890;9.278;2024-03-25T03:10:01;4.83;;;2.73;;
9968;SDS011;5025;48.890;9.278;2024-03-25T03:12:26;2.83;;;2.60;;
9968;SDS011;5025;48.890;9.278;2024-03-25T03:14:51;3.10;;;2.47;;
9968;SDS011;5025;48.890;9.278;2024-03-25T03:17:16;2.40;;;2.20;;
9968;SDS011;5025;48.890;9.278;2024-03-25T03:19:42;3.47;;;2.70;;
9968;SDS011;5025;48.890;9.278;2024-03-25T03:22:07;3.77;;;2.70;;
9968;SDS011;5025;48.890;9.278;2024-03-25T03:24:32;2.87;;;2.37;;
9968;SDS011;5025;48.890;9.278;2024-03-25T03:26:57;2.20;;;2.10;;
9968;SDS011;5025;48.890;9.278;2024-03-25T03:29:23;2.40;;;2.20;;
9968;SDS011;5025;48.890;9.278;2024-03-25T03:31:48;2.50;;;2.30;;
9968;SDS011;5025;48.890;9.278;2024-03-25T03:34:13;2.37;;;2.23;;
9968;SDS011;5025;48.890;9.278;2024-03-25T03:36:38;2.37;;;2.17;;
9968;SDS011;5025;48.890;9.278;2024-03-25T03:39:05;2.27;;;2.10;;
9968;SDS011;5025;48.890;9.278;2024-03-25T03:41:30;2.10;;;2.00;;
9968;SDS011;5025;48.890;9.278;2024-03-25T03:43:56;2.10;;;2.00;;
9968;SDS011;5025;48.890;9.278;2024-03-25T03:46:21;2.00;;;1.90;;
9968;SDS011;5025;48.890;9.278;2024-03-25T03:48:46;2.20;;;2.00;;
9968;SDS011;5025;48.890;9.278;2024-03-25T03:51:11;1.90;;;1.80;;
9968;SDS011;5025;48.890;9.278;2024-03-25T03:53:37;2.00;;;1.90;;
9968;SDS011;5025;48.890;9.278;2024-03-25T03:56:03;1.67;;;1.60;;
9968;SDS011;5025;48.890;9.278;2024-03-25T03:58:32;1.80;;;1.70;;
9968;SDS011;5025;48.890;9.278;2024-03-25T04:00:58;2.17;;;1.80;;
9968;SDS011;5025;48.890;9.278;2024-03-25T04:03:23;1.63;;;1.53;;
9968;SDS011;5025;48.890;9.278;2024-03-25T04:05:49;2.03;;;1.80;;
9968;SDS011;5025;48.890;9.278;2024-03-25T04:08:15;1.63;;;1.53;;
9968;SDS011;5025;48.890;9.278;2024-03-25T04:10:40;1.80;;;1.70;;
9968;SDS011;5025;48.890;9.278;2024-03-25T04:13:07;1.73;;;1.63;;
9968;SDS011;5025;48.890;9.278;2024-03-25T04:15:36;1.90;;;1.80;;
9968;SDS011;5025;48.890;9.278;2024-03-25T04:18:02;1.77;;;1.77;;
9968;SDS011;5025;48.890;9.278;2024-03-25T04:20:27;1.70;;;1.60;;
9968;SDS011;5025;48.890;9.278;2024-03-25T04:22:56;1.80;;;1.70;;
9968;SDS011;5025;48.890;9.278;2024-03-25T04:25:21;1.70;;;1.60;;
9968;SDS011;5025;48.890;9.278;2024-03-25T04:27:47;2.30;;;2.10;;
9968;SDS011;5025;48.890;9.278;2024-03-25T04:30:13;2.43;;;2.23;;
9968;SDS011;5025;48.890;9.278;2024-03-25T04:32:39;2.43;;;2.23;;
9968;SDS011;5025;48.890;9.278;2024-03-25T04:35:05;2.73;;;2.47;;
9968;SDS011;5025;48.890;9.278;2024-03-25T04:37:31;2.80;;;2.43;;
9968;SDS011;5025;48.890;9.278;2024-03-25T04:39:57;3.43;;;2.57;;
9968;SDS011;5025;48.890;9.278;2024-03-25T04:42:22;3.03;;;2.53;;
9968;SDS011;5025;48.890;9.278;2024-03-25T04:44:48;2.70;;;2.50;;
9968;SDS011;5025;48.890;9.278;2024-03-25T04:47:14;2.90;;;2.70;;
9968;SDS011;5025;48.890;9.278;2024-03-25T04:49:42;2.87;;;2.50;;
9968;SDS011;5025;48.890;9.278;2024-03-25T04:52:08;3.60;;;2.60;;
9968;SDS011;5025;48.890;9.278;2024-03-25T04:54:34;2.30;;;2.20;;
9968;SDS011;5025;48.890;9.278;2024-03-25T04:56:59;3.13;;;2.43;;
9968;SDS011;5025;48.890;9.278;2024-03-25T04:59:24;3.83;;;2.60;;
9968;SDS011;5025;48.890;9.278;2024-03-25T05:01:50;2.30;;;2.20;;
9968;SDS011;5025;48.890;9.278;2024-03-25T05:04:17;3.00;;;2.70;;
9968;SDS011;5025;48.890;9.278;2024-03-25T05:06:43;2.93;;;2.63;;
9968;SDS011;5025;48.890;9.278;2024-03-25T05:09:08;3.37;;;3.17;;
9968;SDS011;5025;48.890;9.278;2024-03-25T05:11:33;3.60;;;3.30;;
9968;SDS011;5025;48.890;9.278;2024-03-25T05:13:59;3.57;;;3.37;;
9968;SDS011;5025;48.890;9.278;2024-03-25T05:16:24;4.17;;;3.40;;
9968;SDS011;5025;48.890;9.278;2024-03-25T05:18:50;3.30;;;3.00;;
9968;SDS011;5025;48.890;9.278;2024-03-25T05:21:15;3.30;;;3.10;;
9968;SDS011;5025;48.890;9.278;2024-03-25T05:23:40;3.20;;;2.90;;
9968;SDS011;5025;48.890;9.278;2024-03-25T05:26:06;3.10;;;2.90;;
9968;SDS011;5025;48.890;9.278;2024-03-25T05:28:31;3.23;;;2.93;;
9968;SDS011;5025;48.890;9.278;2024-03-25T05:30:56;2.73;;;2.53;;
9968;SDS011;5025;48.890;9.278;2024-03-25T05:33:22;2.87;;;2.67;;
9968;SDS011;5025;48.890;9.278;2024-03-25T05:35:47;2.87;;;2.67;;
9968;SDS011;5025;48.890;9.278;2024-03-25T05:38:12;3.27;;;2.97;;
9968;SDS011;5025;48.890;9.278;2024-03-25T05:40:37;3.83;;;3.03;;
9968;SDS011;5025;48.890;9.278;2024-03-25T05:43:03;2.83;;;2.63;;
9968;SDS011;5025;48.890;9.278;2024-03-25T05:45:28;2.50;;;2.33;;
9968;SDS011;5025;48.890;9.278;2024-03-25T05:47:53;3.07;;;2.67;;
9968;SDS011;5025;48.890;9.278;2024-03-25T05:50:19;3.60;;;2.40;;
9968;SDS011;5025;48.890;9.278;2024-03-25T05:52:44;3.00;;;2.80;;
9968;SDS011;5025;48.890;9.278;2024-03-25T05:55:09;2.73;;;2.53;;
9968;SDS011;5025;48.890;9.278;2024-03-25T05:57:37;2.20;;;2.10;;
9968;SDS011;5025;48.890;9.278;2024-03-25T06:00:03;2.83;;;2.20;;
9968;SDS011;5025;48.890;9.278;2024-03-25T06:02:30;2.53;;;2.33;;
9968;SDS011;5025;48.890;9.278;2024-03-25T06:04:55;2.60;;;2.40;;
9968;SDS011;5025;48.890;9.278;2024-03-25T06:07:21;3.47;;;2.60;;
9968;SDS011;5025;48.890;9.278;2024-03-25T06:09:47;3.07;;;2.40;;
9968;SDS011;5025;48.890;9.278;2024-03-25T06:12:12;2.63;;;2.40;;
9968;SDS011;5025;48.890;9.278;2024-03-25T06:14:38;2.73;;;2.53;;
9968;SDS011;5025;48.890;9.278;2024-03-25T06:17:03;3.37;;;2.50;;
9968;SDS011;5025;48.890;9.278;2024-03-25T06:19:28;2.50;;;2.30;;
9968;SDS011;5025;48.890;9.278;2024-03-25T06:21:54;3.17;;;2.40;;
9968;SDS011;5025;48.890;9.278;2024-03-25T06:24:19;2.60;;;2.40;;
9968;SDS011;5025;48.890;9.278;2024-03-25T06:26:44;2.70;;;2.50;;
9968;SDS011;5025;48.890;9.278;2024-03-25T06:29:09;2.30;;;2.10;;
9968;SDS011;5025;48.890;9.278;2024-03-25T06:31:35;2.50;;;2.30;;
9968;SDS011;5025;48.890;9.278;2024-03-25T06:34:19;3.63;;;2.60;;
9968;SDS011;5025;48.890;9.278;2024-03-25T06:36:46;2.63;;;2.43;;
9968;SDS011;5025;48.890;9.278;2024-03-25T06:39:12;2.97;;;2.67;;
9968;SDS011;5025;48.890;9.278;2024-03-25T06:41:40;4.07;;;2.70;;
9968;SDS011;5025;48.890;9.278;2024-03-25T06:44:06;3.30;;;2.80;;
9968;SDS011;5025;48.890;9.278;2024-03-25T06:46:31;2.93;;;2.70;;
9968;SDS011;5025;48.890;9.278;2024-03-25T06:48:57;3.30;;;3.10;;
9968;SDS011;5025;48.890;9.278;2024-03-25T06:51:23;3.10;;;2.80;;
9968;SDS011;5025;48.890;9.278;2024-03-25T06:53:48;3.10;;;2.87;;
9968;SDS011;5025;48.890;9.278;2024-03-25T06:56:14;4.20;;;3.47;;
9968;SDS011;5025;48.890;9.278;2024-03-25T06:58:39;4.00;;;3.17;;
9968;SDS011;5025;48.890;9.278;2024-03-25T07:01:06;3.23;;;2.90;;
9968;SDS011;5025;48.890;9.278;2024-03-25T07:03:32;3.20;;;2.87;;
9968;SDS011;5025;48.890;9.278;2024-03-25T07:05:58;4.53;;;3.23;;
9968;SDS011;5025;48.890;9.278;2024-03-25T07:08:25;4.23;;;3.40;;
9968;SDS011;5025;48.890;9.278;2024-03-25T07:10:51;4.87;;;3.23;;
9968;SDS011;5025;48.890;9.278;2024-03-25T07:13:17;3.00;;;2.80;;
9968;SDS011;5025;48.890;9.278;2024-03-25T07:15:43;3.60;;;3.30;;
9968;SDS011;5025;48.890;9.278;2024-03-25T07:18:08;4.30;;;3.30;;
9968;SDS011;5025;48.890;9.278;2024-03-25T07:20:36;5.37;;;3.60;;
9968;SDS011;5025;48.890;9.278;2024-03-25T07:23:01;3.23;;;3.03;;
9968;SDS011;5025;48.890;9.278;2024-03-25T07:25:26;3.00;;;2.80;;
9968;SDS011;5025;48.890;9.278;2024-03-25T07:27:52;7.53;;;3.93;;
9968;SDS011;5025;48.890;9.278;2024-03-25T07:30:17;5.13;;;3.90;;
9968;SDS011;5025;48.890;9.278;2024-03-25T07:32:43;4.13;;;3.70;;
9968;SDS011;5025;48.890;9.278;2024-03-25T07:35:10;3.40;;;3.10;;
9968;SDS011;5025;48.890;9.278;2024-03-25T07:37:36;4.53;;;3.30;;
9968;SDS011;5025;48.890;9.278;2024-03-25T07:40:01;3.40;;;3.10;;
9968;SDS011;5025;48.890;9.278;2024-03-25T07:42:28;4.27;;;3.77;;
9968;SDS011;5025;48.890;9.278;2024-03-25T07:44:53;4.77;;;3.53;;
9968;SDS011;5025;48.890;9.278;2024-03-25T07:47:18;5.60;;;3.80;;
9968;SDS011;5025;48.890;9.278;2024-03-25T07:49:44;5.33;;;4.00;;
9968;SDS011;5025;48.890;9.278;2024-03-25T07:52:09;4.87;;;3.50;;
9968;SDS011;5025;48.890;9.278;2024-03-25T07:54:34;4.10;;;3.43;;
9968;SDS011;5025;48.890;9.278;2024-03-25T07:57:02;4.23;;;3.20;;
9968;SDS011;5025;48.890;9.278;2024-03-25T07:59:28;3.00;;;2.60;;
9968;SDS011;5025;48.890;9.278;2024-03-25T08:01:53;4.83;;;2.80;;
9968;SDS011;5025;48.890;9.278;2024-03-25T08:04:19;5.60;;;3.23;;
9968;SDS011;5025;48.890;9.278;2024-03-25T08:06:44;3.60;;;2.57;;
9968;SDS011;5025;48.890;9.278;2024-03-25T08:09:09;4.40;;;2.73;;
9968;SDS011;5025;48.890;9.278;2024-03-25T08:11:35;5.53;;;2.90;;
9968;SDS011;5025;48.890;9.278;2024-03-25T08:14:00;3.60;;;2.50;;
9968;SDS011;5025;48.890;9.278;2024-03-25T08:16:25;3.77;;;2.67;;
9968;SDS011;5025;48.890;9.278;2024-03-25T08:18:51;3.53;;;2.60;;
9968;SDS011;5025;48.890;9.278;2024-03-25T08:21:16;5.00;;;2.70;;
9968;SDS011;5025;48.890;9.278;2024-03-25T08:23:44;4.73;;;2.67;;
9968;SDS011;5025;48.890;9.278;2024-03-25T08:26:10;4.80;;;2.63;;
9968;SDS011;5025;48.890;9.278;2024-03-25T08:28:35;2.90;;;2.60;;
9968;SDS011;5025;48.890;9.278;2024-03-25T08:31:00;3.63;;;2.40;;
9968;SDS011;5025;48.890;9.278;2024-03-25T08:33:26;2.87;;;2.47;;
9968;SDS011;5025;48.890;9.278;2024-03-25T08:35:51;2.60;;;2.40;;
9968;SDS011;5025;48.890;9.278;2024-03-25T08:38:16;3.60;;;2.30;;
9968;SDS011;5025;48.890;9.278;2024-03-25T08:40:41;3.00;;;2.20;;
9968;SDS011;5025;48.890;9.278;2024-03-25T08:43:07;2.17;;;1.80;;
9968;SDS011;5025;48.890;9.278;2024-03-25T08:45:32;3.30;;;2.20;;
9968;SDS011;5025;48.890;9.278;2024-03-25T08:47:57;5.40;;;2.20;;
9968;SDS011;5025;48.890;9.278;2024-03-25T08:50:22;3.97;;;2.50;;
9968;SDS011;5025;48.890;9.278;2024-03-25T08:52:48;2.53;;;2.30;;
9968;SDS011;5025;48.890;9.278;2024-03-25T08:55:14;3.63;;;2.00;;
9968;SDS011;5025;48.890;9.278;2024-03-25T08:57:39;3.70;;;2.20;;
9968;SDS011;5025;48.890;9.278;2024-03-25T09:00:04;2.30;;;2.10;;
9968;SDS011;5025;48.890;9.278;2024-03-25T09:02:35;2.97;;;2.17;;
9968;SDS011;5025;48.890;9.278;2024-03-25T09:05:00;2.20;;;1.93;;
9968;SDS011;5025;48.890;9.278;2024-03-25T09:07:25;2.90;;;1.80;;
9968;SDS011;5025;48.890;9.278;2024-03-25T09:09:51;2.37;;;1.77;;
9968;SDS011;5025;48.890;9.278;2024-03-25T09:12:34;1.67;;;1.53;;
9968;SDS011;5025;48.890;9.278;2024-03-25T09:15:00;2.67;;;2.00;;
9968;SDS011;5025;48.890;9.278;2024-03-25T09:17:25;2.63;;;1.93;;
9968;SDS011;5025;48.890;9.278;2024-03-25T09:19:50;3.23;;;1.90;;
9968;SDS011;5025;48.890;9.278;2024-03-25T09:22:16;2.17;;;1.70;;
9968;SDS011;5025;48.890;9.278;2024-03-25T09:24:41;2.20;;;1.90;;
9968;SDS011;5025;48.890;9.278;2024-03-25T09:27:06;3.17;;;1.90;;
9968;SDS011;5025;48.890;9.278;2024-03-25T09:29:32;2.57;;;1.70;;
9968;SDS011;5025;48.890;9.278;2024-03-25T09:31:57;1.80;;;1.47;;
9968;SDS011;5025;48.890;9.278;2024-03-25T09:34:22;2.07;;;1.60;;
9968;SDS011;5025;48.890;9.278;2024-03-25T09:36:47;2.30;;;1.60;;
9968;SDS011;5025;48.890;9.278;2024-03-25T09:39:13;4.53;;;2.30;;
9968;SDS011;5025;48.890;9.278;2024-03-25T09:41:38;2.93;;;2.10;;
9968;SDS011;5025;48.890;9.278;2024-03-25T09:44:08;2.37;;;2.10;;
9968;SDS011;5025;48.890;9.278;2024-03-25T09:46:34;2.50;;;1.90;;
9968;SDS011;5025;48.890;9.278;2024-03-25T09:49:01;2.10;;;1.80;;
9968;SDS011;5025;48.890;9.278;2024-03-25T09:51:30;2.10;;;1.90;;
9968;SDS011;5025;48.890;9.278;2024-03-25T09:53:56;2.70;;;1.80;;
9968;SDS011;5025;48.890;9.278;2024-03-25T09:56:21;3.53;;;2.13;;
9968;SDS011;5025;48.890;9.278;2024-03-25T09:58:46;2.10;;;1.70;;
9968;SDS011;5025;48.890;9.278;2024-03-25T10:01:12;1.60;;;1.50;;
9968;SDS011;5025;48.890;9.278;2024-03-25T10:03:37;1.40;;;1.23;;
9968;SDS011;5025;48.890;9.278;2024-03-25T10:06:03;1.90;;;1.43;;
9968;SDS011;5025;48.890;9.278;2024-03-25T10:08:28;1.90;;;1.40;;
9968;SDS011;5025;48.890;9.278;2024-03-25T10:10:55;1.23;;;1.23;;
9968;SDS011;5025;48.890;9.278;2024-03-25T10:13:21;1.40;;;1.30;;
9968;SDS011;5025;48.890;9.278;2024-03-25T10:15:47;1.40;;;1.30;;
9968;SDS011;5025;48.890;9.278;2024-03-25T10:18:13;1.23;;;1.10;;
9968;SDS011;5025;48.890;9.278;2024-03-25T10:20:38;1.47;;;1.30;;
9968;SDS011;5025;48.890;9.278;2024-03-25T10:23:03;1.10;;;1.00;;
9968;SDS011;5025;48.890;9.278;2024-03-25T10:25:29;1.23;;;1.10;;
9968;SDS011;5025;48.890;9.278;2024-03-25T10:27:59;1.10;;;1.00;;
9968;SDS011;5025;48.890;9.278;2024-03-25T10:30:26;1.57;;;1.30;;
9968;SDS011;5025;48.890;9.278;2024-03-25T10:32:58;1.70;;;1.60;;
9968;SDS011;5025;48.890;9.278;2024-03-25T10:35:25;1.47;;;1.37;;
9968;SDS011;5025;48.890;9.278;2024-03-25T10:37:52;2.97;;;1.90;;
9968;SDS011;5025;48.890;9.278;2024-03-25T10:40:20;2.10;;;1.47;;
9968;SDS011;5025;48.890;9.278;2024-03-25T10:42:47;1.57;;;1.33;;
9968;SDS011;5025;48.890;9.278;2024-03-25T10:45:12;2.37;;;1.50;;
9968;SDS011;5025;48.890;9.278;2024-03-25T10:47:38;2.40;;;1.67;;
9968;SDS011;5025;48.890;9.278;2024-03-25T10:50:06;1.97;;;1.50;;
9968;SDS011;5025;48.890;9.278;2024-03-25T10:52:34;1.73;;;1.43;;
9968;SDS011;5025;48.890;9.278;2024-03-25T10:55:02;1.10;;;1.10;;
9968;SDS011;5025;48.890;9.278;2024-03-25T10:57:28;2.00;;;1.40;;
9968;SDS011;5025;48.890;9.278;2024-03-25T10:59:54;1.80;;;1.20;;
9968;SDS011;5025;48.890;9.278;2024-03-25T11:02:22;1.67;;;1.57;;
9968;SDS011;5025;48.890;9.278;2024-03-25T11:04:47;1.70;;;1.40;;
9968;SDS011;5025;48.890;9.278;2024-03-25T11:07:14;1.87;;;1.50;;
9968;SDS011;5025;48.890;9.278;2024-03-25T11:09:40;2.07;;;1.60;;
9968;SDS011;5025;48.890;9.278;2024-03-25T11:12:09;2.07;;;1.37;;
9968;SDS011;5025;48.890;9.278;2024-03-25T11:14:36;1.20;;;1.20;;
9968;SDS011;5025;48.890;9.278;2024-03-25T11:17:02;3.60;;;1.30;;
9968;SDS011;5025;48.890;9.278;2024-03-25T11:19:28;3.03;;;1.50;;
9968;SDS011;5025;48.890;9.278;2024-03-25T11:21:55;1.93;;;1.40;;
9968;SDS011;5025;48.890;9.278;2024-03-25T11:24:31;1.50;;;1.40;;
9968;SDS011;5025;48.890;9.278;2024-03-25T11:26:56;0.90;;;0.90;;
9968;SDS011;5025;48.890;9.278;2024-03-25T11:29:21;2.13;;;1.30;;
9968;SDS011;5025;48.890;9.278;2024-03-25T11:31:48;1.57;;;1.30;;
9968;SDS011;5025;48.890;9.278;2024-03-25T11:34:14;1.27;;;1.17;;
9968;SDS011;5025;48.890;9.278;2024-03-25T11:36:40;1.97;;;1.50;;
9968;SDS011;5025;48.890;9.278;2024-03-25T11:39:05;1.80;;;1.50;;
9968;SDS011;5025;48.890;9.278;2024-03-25T11:41:34;1.67;;;1.30;;
9968;SDS011;5025;48.890;9.278;2024-03-25T11:44:04;2.10;;;1.60;;
9968;SDS011;5025;48.890;9.278;2024-03-25T11:46:29;2.43;;;1.60;;
9968;SDS011;5025;48.890;9.278;2024-03-25T11:48:55;2.00;;;1.90;;
9968;SDS011;5025;48.890;9.278;2024-03-25T11:51:20;2.53;;;1.63;;
9968;SDS011;5025;48.890;9.278;2024-03-25T11:53:46;1.70;;;1.33;;
9968;SDS011;5025;48.890;9.278;2024-03-25T11:56:11;1.30;;;1.20;;
9968;SDS011;5025;48.890;9.278;2024-03-25T11:58:39;1.43;;;1.23;;
9968;SDS011;5025;48.890;9.278;2024-03-25T12:01:05;1.13;;;1.13;;
9968;SDS011;5025;48.890;9.278;2024-03-25T12:03:30;1.53;;;1.40;;
9968;SDS011;5025;48.890;9.278;2024-03-25T12:05:56;2.10;;;1.60;;
9968;SDS011;5025;48.890;9.278;2024-03-25T12:08:22;1.47;;;1.10;;
9968;SDS011;5025;48.890;9.278;2024-03-25T12:10:51;1.20;;;1.10;;
9968;SDS011;5025;48.890;9.278;2024-03-25T12:13:35;1.30;;;1.20;;
9968;SDS011;5025;48.890;9.278;2024-03-25T12:16:05;1.23;;;1.13;;
9968;SDS011;5025;48.890;9.278;2024-03-25T12:18:32;1.40;;;1.30;;
9968;SDS011;5025;48.890;9.278;2024-03-25T12:20:58;1.50;;;1.07;;
9968;SDS011;5025;48.890;9.278;2024-03-25T12:23:28;1.97;;;1.17;;
9968;SDS011;5025;48.890;9.278;2024-03-25T12:25:54;1.40;;;1.30;;
9968;SDS011;5025;48.890;9.278;2024-03-25T12:28:19;1.50;;;1.40;;
9968;SDS011;5025;48.890;9.278;2024-03-25T12:30:54;1.30;;;1.20;;
9968;SDS011;5025;48.890;9.278;2024-03-25T12:33:21;1.03;;;0.93;;
9968;SDS011;5025;48.890;9.278;2024-03-25T12:35:48;1.20;;;1.20;;
9968;SDS011;5025;48.890;9.278;2024-03-25T12:38:23;1.17;;;1.07;;
9968;SDS011;5025;48.890;9.278;2024-03-25T12:40:53;1.50;;;1.40;;
9968;SDS011;5025;48.890;9.278;2024-03-25T12:43:19;1.57;;;1.47;;
9968;SDS011;5025;48.890;9.278;2024-03-25T12:45:45;1.50;;;1.40;;
9968;SDS011;5025;48.890;9.278;2024-03-25T12:48:10;1.80;;;1.37;;
9968;SDS011;5025;48.890;9.278;2024-03-25T12:50:36;1.40;;;1.30;;
9968;SDS011;5025;48.890;9.278;2024-03-25T12:53:02;1.97;;;1.60;;
9968;SDS011;5025;48.890;9.278;2024-03-25T12:55:28;1.80;;;1.47;;
9968;SDS011;5025;48.890;9.278;2024-03-25T12:57:54;1.77;;;1.20;;
9968;SDS011;5025;48.890;9.278;2024-03-25T13:00:19;1.20;;;1.20;;
9968;SDS011;5025;48.890;9.278;2024-03-25T13:02:44;1.10;;;1.10;;
9968;SDS011;5025;48.890;9.278;2024-03-25T13:05:10;2.20;;;1.60;;
9968;SDS011;5025;48.890;9.278;2024-03-25T13:07:35;1.67;;;1.37;;
9968;SDS011;5025;48.890;9.278;2024-03-25T13:10:00;1.83;;;1.43;;
9968;SDS011;5025;48.890;9.278;2024-03-25T13:12:26;1.40;;;1.30;;
9968;SDS011;5025;48.890;9.278;2024-03-25T13:14:51;1.40;;;1.30;;
9968;SDS011;5025;48.890;9.278;2024-03-25T13:17:16;1.30;;;1.20;;
9968;SDS011;5025;48.890;9.278;2024-03-25T13:19:41;1.57;;;1.00;;
9968;SDS011;5025;48.890;9.278;2024-03-25T13:22:07;1.00;;;1.00;;
9968;SDS011;5025;48.890;9.278;2024-03-25T13:24:32;1.10;;;1.10;;
9968;SDS011;5025;48.890;9.278;2024-03-25T13:26:57;2.07;;;1.47;;
9968;SDS011;5025;48.890;9.278;2024-03-25T13:29:23;1.40;;;1.30;;
9968;SDS011;5025;48.890;9.278;2024-03-25T13:31:48;1.20;;;1.10;;
9968;SDS011;5025;48.890;9.278;2024-03-25T13:34:13;1.27;;;1.20;;
9968;SDS011;5025;48.890;9.278;2024-03-25T13:36:38;1.20;;;1.17;;
9968;SDS011;5025;48.890;9.278;2024-03-25T13:39:04;1.50;;;1.37;;
9968;SDS011;5025;48.890;9.278;2024-03-25T13:41:29;1.20;;;1.07;;
9968;SDS011;5025;48.890;9.278;2024-03-25T13:43:54;1.10;;;1.10;;
9968;SDS011;5025;48.890;9.278;2024-03-25T13:46:19;1.17;;;1.17;;
9968;SDS011;5025;48.890;9.278;2024-03-25T13:48:46;1.20;;;1.10;;
9968;SDS011;5025;48.890;9.278;2024-03-25T13:51:12;1.10;;;1.10;;
9968;SDS011;5025;48.890;9.278;2024-03-25T13:53:37;1.27;;;1.10;;
9968;SDS011;5025;48.890;9.278;2024-03-25T13:56:03;1.87;;;1.33;;
9968;SDS011;5025;48.890;9.278;2024-03-25T13:58:28;1.23;;;1.13;;
9968;SDS011;5025;48.890;9.278;2024-03-25T14:00:53;1.40;;;1.30;;
9968;SDS011;5025;48.890;9.278;2024-03-25T14:03:20;2.40;;;1.30;;
9968;SDS011;5025;48.890;9.278;2024-03-25T14:05:45;1.30;;;1.20;;
9968;SDS011;5025;48.890;9.278;2024-03-25T14:08:11;1.23;;;1.10;;
9968;SDS011;5025;48.890;9.278;2024-03-25T14:10:36;1.30;;;1.20;;
9968;SDS011;5025;48.890;9.278;2024-03-25T14:13:01;1.60;;;1.00;;
9968;SDS011;5025;48.890;9.278;2024-03-25T14:15:28;1.77;;;1.50;;
9968;SDS011;5025;48.890;9.278;2024-03-25T14:17:53;1.47;;;1.30;;
9968;SDS011;5025;48.890;9.278;2024-03-25T14:20:18;1.20;;;1.10;;
9968;SDS011;5025;48.890;9.278;2024-03-25T14:22:44;1.43;;;1.30;;
9968;SDS011;5025;48.890;9.278;2024-03-25T14:25:09;1.57;;;1.20;;
9968;SDS011;5025;48.890;9.278;2024-03-25T14:27:34;2.40;;;1.30;;
9968;SDS011;5025;48.890;9.278;2024-03-25T14:29:59;1.13;;;1.13;;
9968;SDS011;5025;48.890;9.278;2024-03-25T14:32:25;1.53;;;1.30;;
9968;SDS011;5025;48.890;9.278;2024-03-25T14:34:50;1.30;;;1.20;;
9968;SDS011;5025;48.890;9.278;2024-03-25T14:37:15;1.27;;;1.17;;
9968;SDS011;5025;48.890;9.278;2024-03-25T14:39:41;1.20;;;1.10;;
9968;SDS011;5025;48.890;9.278;2024-03-25T14:42:09;2.10;;;1.07;;
9968;SDS011;5025;48.890;9.278;2024-03-25T14:44:38;1.20;;;1.17;;
9968;SDS011;5025;48.890;9.278;2024-03-25T14:47:03;1.40;;;1.27;;
9968;SDS011;5025;48.890;9.278;2024-03-25T14:49:29;1.00;;;1.00;;
9968;SDS011;5025;48.890;9.278;2024-03-25T14:51:54;1.20;;;1.10;;
9968;SDS011;5025;48.890;9.278;2024-03-25T14:54:21;1.30;;;1.20;;
9968;SDS011;5025;48.890;9.278;2024-03-25T14:56:46;1.40;;;1.30;;
9968;SDS011;5025;48.890;9.278;2024-03-25T14:59:12;1.27;;;1.17;;
9968;SDS011;5025;48.890;9.278;2024-03-25T15:01:38;1.30;;;1.20;;
9968;SDS011;5025;48.890;9.278;2024-03-25T15:04:03;1.40;;;1.30;;
9968;SDS011;5025;48.890;9.278;2024-03-25T15:06:29;1.30;;;1.20;;